createdAt,value
2022-10-06T00:02:22.465Z,78.86
2022-10-06T00:04:52.828Z,78.84
2022-10-06T00:07:23.311Z,79.29
2022-10-06T00:09:53.700Z,78.88
2022-10-06T00:12:24.286Z,78.93
2022-10-06T00:14:54.658Z,79.09
2022-10-06T00:17:25.146Z,79.12
2022-10-06T00:19:57.862Z,79.09
2022-10-06T00:22:37.063Z,79.08
2022-10-06T00:25:09.635Z,79.18
2022-10-06T00:27:42.720Z,79.32
2022-10-06T00:30:15.851Z,79.56
2022-10-06T00:33:03.551Z,79.75
2022-10-06T00:35:35.682Z,79.46
2022-10-06T00:38:06.245Z,79.16
2022-10-06T00:40:38.090Z,79.32
2022-10-06T00:43:10.047Z,79.34
2022-10-06T00:45:45.064Z,79.13
2022-10-06T00:48:18.659Z,78.91
2022-10-06T00:50:49.533Z,78.85
2022-10-06T00:53:19.973Z,78.72
2022-10-06T00:55:50.710Z,78.75
2022-10-06T00:58:22.136Z,78.92
2022-10-06T01:00:54.269Z,78.75
2022-10-06T01:03:30.658Z,78.80
2022-10-06T01:06:02.040Z,78.58
2022-10-06T01:08:33.171Z,78.50
2022-10-06T01:11:03.770Z,78.30
2022-10-06T01:13:34.880Z,77.78
2022-10-06T01:16:22.218Z,78.04
2022-10-06T01:18:55.782Z,77.75
2022-10-06T01:21:32.175Z,77.63
2022-10-06T01:24:05.876Z,77.77
2022-10-06T01:26:39.301Z,77.86
2022-10-06T01:29:10.309Z,77.86
2022-10-06T01:31:41.166Z,77.37
2022-10-06T01:34:11.517Z,77.50
2022-10-06T01:36:43.520Z,77.66
2022-10-06T01:39:13.936Z,77.57
2022-10-06T01:41:46.003Z,77.58
2022-10-06T01:44:16.402Z,77.93
2022-10-06T01:46:46.827Z,77.92
2022-10-06T01:49:17.280Z,78.12
2022-10-06T01:51:48.366Z,78.42
2022-10-06T01:54:18.760Z,78.32
2022-10-06T01:56:49.185Z,78.20
2022-10-06T01:59:22.586Z,78.46
2022-10-06T02:01:53.907Z,78.85
2022-10-06T02:04:24.349Z,79.14
2022-10-06T02:06:55.451Z,79.38
2022-10-06T02:09:26.052Z,79.38
2022-10-06T02:11:56.411Z,79.57
2022-10-06T02:14:27.014Z,79.67
2022-10-06T02:16:57.407Z,79.73
2022-10-06T02:19:27.917Z,79.32
2022-10-06T02:21:58.654Z,79.92
2022-10-06T02:24:30.198Z,80.02
2022-10-06T02:27:00.673Z,79.91
2022-10-06T02:29:31.139Z,79.89
2022-10-06T02:32:01.540Z,79.80
2022-10-06T02:34:31.910Z,80.00
2022-10-06T02:37:02.474Z,79.89
2022-10-06T02:39:32.846Z,80.55
2022-10-06T02:42:04.520Z,80.50
2022-10-06T02:44:34.959Z,80.28
2022-10-06T02:47:05.351Z,80.69
2022-10-06T02:49:35.718Z,80.80
2022-10-06T02:52:06.036Z,80.74
2022-10-06T02:54:36.795Z,80.72
2022-10-06T02:57:09.336Z,80.34
2022-10-06T02:59:39.728Z,80.35
2022-10-06T03:02:10.651Z,80.16
2022-10-06T03:04:41.177Z,80.02
2022-10-06T03:07:11.650Z,80.04
2022-10-06T03:09:42.405Z,79.90
2022-10-06T03:12:12.938Z,79.73
2022-10-06T03:14:43.246Z,79.52
2022-10-06T03:17:13.553Z,79.62
2022-10-06T03:19:43.868Z,79.64
2022-10-06T03:22:14.381Z,79.44
2022-10-06T03:24:44.841Z,79.45
2022-10-06T03:27:16.005Z,79.07
2022-10-06T03:29:46.381Z,79.01
2022-10-06T03:32:16.704Z,79.05
2022-10-06T03:34:47.660Z,78.95
2022-10-06T03:37:19.068Z,78.73
2022-10-06T03:39:49.460Z,78.57
2022-10-06T03:42:19.847Z,78.92
2022-10-06T03:44:50.315Z,79.18
2022-10-06T03:47:20.717Z,79.90
2022-10-06T03:49:51.145Z,79.91
2022-10-06T03:52:25.907Z,80.21
2022-10-06T03:54:53.585Z,80.59
2022-10-06T03:57:24.019Z,80.35
2022-10-06T03:59:54.966Z,80.05
2022-10-06T04:02:25.479Z,79.85
2022-10-06T04:04:56.323Z,79.99
2022-10-06T04:07:26.784Z,79.61
2022-10-06T04:09:57.253Z,79.52
2022-10-06T04:12:27.739Z,79.52
2022-10-06T04:15:00.215Z,79.71
2022-10-06T04:17:30.369Z,79.88
2022-10-06T04:20:00.806Z,79.65
2022-10-06T04:22:31.231Z,80.62
2022-10-06T04:25:01.619Z,79.51
2022-10-06T04:27:32.050Z,79.45
2022-10-06T04:30:02.424Z,77.20
2022-10-06T04:32:32.927Z,75.80
2022-10-06T04:35:03.408Z,73.39
2022-10-06T04:37:33.912Z,73.46
2022-10-06T04:40:05.090Z,71.07
2022-10-06T04:42:36.390Z,70.68
2022-10-06T04:45:07.727Z,71.34
2022-10-06T04:47:40.196Z,71.25
2022-10-06T04:50:11.119Z,70.51
2022-10-06T04:52:41.525Z,71.09
2022-10-06T04:55:11.761Z,70.73
2022-10-06T04:57:42.115Z,70.56
2022-10-06T05:00:25.145Z,70.36
2022-10-06T05:02:56.280Z,70.13
2022-10-06T05:05:26.536Z,70.46
2022-10-06T05:07:57.035Z,70.71
2022-10-06T05:10:27.971Z,70.63
2022-10-06T05:12:58.371Z,71.00
2022-10-06T05:15:29.159Z,70.25
2022-10-06T05:17:59.518Z,70.05
2022-10-06T05:20:29.888Z,69.88
2022-10-06T05:23:00.334Z,67.89
2022-10-06T05:25:30.655Z,67.75
2022-10-06T05:28:01.150Z,67.69
2022-10-06T05:30:31.569Z,67.88
2022-10-06T05:33:01.955Z,68.10
2022-10-06T05:35:32.402Z,68.56
2022-10-06T05:38:02.902Z,69.18
2022-10-06T05:40:33.303Z,69.56
2022-10-06T05:43:05.274Z,69.67
2022-10-06T05:45:35.674Z,70.18
2022-10-06T05:48:06.074Z,69.61
2022-10-06T05:50:36.455Z,69.55
2022-10-06T05:53:06.711Z,70.30
2022-10-06T05:55:37.299Z,70.19
2022-10-06T05:58:07.629Z,70.63
2022-10-06T06:00:38.020Z,70.50
2022-10-06T06:03:10.481Z,70.78
2022-10-06T06:05:43.980Z,70.64
2022-10-06T06:08:14.383Z,71.01
2022-10-06T06:10:44.772Z,70.67
2022-10-06T06:13:23.266Z,71.34
2022-10-06T06:16:04.048Z,70.86
2022-10-06T06:18:38.465Z,71.13
2022-10-06T06:21:10.948Z,71.49
2022-10-06T06:23:45.873Z,71.31
2022-10-06T06:26:23.211Z,71.11
2022-10-06T06:28:55.322Z,71.16
2022-10-06T06:31:28.006Z,71.39
2022-10-06T06:34:01.228Z,71.09
2022-10-06T06:36:37.275Z,71.11
2022-10-06T06:39:10.191Z,71.50
2022-10-06T06:41:44.667Z,71.43
2022-10-06T06:44:15.429Z,71.82
2022-10-06T06:46:48.007Z,72.04
2022-10-06T06:49:20.428Z,71.94
2022-10-06T06:51:50.998Z,71.65
2022-10-06T06:54:22.300Z,72.16
2022-10-06T06:56:52.577Z,71.98
2022-10-06T06:59:23.061Z,71.57
2022-10-06T07:01:57.820Z,71.88
2022-10-06T07:04:28.305Z,71.98
2022-10-06T07:06:58.818Z,72.52
2022-10-06T07:09:29.664Z,72.97
2022-10-06T07:11:59.957Z,73.28
2022-10-06T07:14:32.077Z,73.44
2022-10-06T07:17:20.308Z,73.17
2022-10-06T07:19:58.183Z,72.92
2022-10-06T07:22:47.384Z,72.94
2022-10-06T07:25:25.405Z,72.88
2022-10-06T07:27:52.953Z,73.15
2022-10-06T07:30:26.341Z,72.70
2022-10-06T07:32:56.803Z,73.07
2022-10-06T07:35:27.393Z,72.39
2022-10-06T07:38:02.011Z,72.24
2022-10-06T07:40:33.069Z,71.94
2022-10-06T07:43:03.540Z,71.86
2022-10-06T07:45:41.997Z,71.91
2022-10-06T07:48:15.060Z,71.37
2022-10-06T07:50:48.991Z,71.63
2022-10-06T07:53:20.516Z,70.79
2022-10-06T07:55:52.017Z,70.18
2022-10-06T07:58:24.079Z,70.08
2022-10-06T08:00:54.457Z,69.81
2022-10-06T08:03:25.250Z,69.76
2022-10-06T08:06:00.914Z,69.44
2022-10-06T08:08:34.990Z,69.72
2022-10-06T08:11:06.458Z,69.47
2022-10-06T08:13:39.739Z,68.54
2022-10-06T08:16:16.424Z,68.13
2022-10-06T08:18:53.253Z,67.68
2022-10-06T08:21:32.003Z,66.62
2022-10-06T08:24:02.384Z,66.70
2022-10-06T08:26:34.490Z,66.78
2022-10-06T08:29:04.858Z,66.00
2022-10-06T08:31:35.262Z,65.91
2022-10-06T08:34:11.504Z,65.18
2022-10-06T08:36:39.580Z,64.41
2022-10-06T08:39:10.007Z,64.14
2022-10-06T08:41:44.940Z,63.97
2022-10-06T08:44:20.999Z,64.18
2022-10-06T08:47:03.709Z,63.63
2022-10-06T08:49:39.633Z,63.35
2022-10-06T08:52:35.803Z,63.36
2022-10-06T08:55:21.267Z,62.85
2022-10-06T08:58:03.444Z,62.56
2022-10-06T09:00:34.457Z,62.47
2022-10-06T09:03:05.777Z,62.11
2022-10-06T09:05:37.128Z,60.74
2022-10-06T09:08:36.141Z,60.81
2022-10-06T09:11:18.522Z,60.28
2022-10-06T09:13:53.363Z,60.87
2022-10-06T09:16:29.713Z,60.47
2022-10-06T09:19:09.574Z,60.03
2022-10-06T09:21:45.930Z,59.79
2022-10-06T09:24:19.275Z,59.22
2022-10-06T09:26:52.014Z,59.09
2022-10-06T09:29:22.407Z,58.96
2022-10-06T09:31:52.861Z,58.38
2022-10-06T09:34:42.901Z,56.99
2022-10-06T09:37:14.316Z,55.40
2022-10-06T09:39:49.422Z,56.71
2022-10-06T09:42:25.707Z,55.02
2022-10-06T09:45:06.042Z,55.61
2022-10-06T09:47:39.720Z,56.57
2022-10-06T09:50:30.476Z,55.74
2022-10-06T09:53:06.413Z,55.55
2022-10-06T09:55:42.990Z,54.25
2022-10-06T09:58:36.057Z,53.54
2022-10-06T10:01:14.225Z,54.29
2022-10-06T10:04:08.699Z,55.12
2022-10-06T10:06:29.566Z,55.39
2022-10-06T10:09:22.413Z,55.75
2022-10-06T10:12:32.019Z,56.07
2022-10-06T10:15:05.228Z,56.31
2022-10-06T10:17:47.085Z,56.02
2022-10-06T10:20:34.384Z,56.56
2022-10-06T10:23:19.869Z,56.01
2022-10-06T10:26:05.357Z,55.44
2022-10-06T10:28:51.691Z,55.00
2022-10-06T10:31:34.204Z,54.89
2022-10-06T10:34:23.829Z,55.05
2022-10-06T10:36:45.512Z,54.23
2022-10-06T10:39:18.958Z,53.56
2022-10-06T10:41:52.689Z,53.87
2022-10-06T10:44:31.952Z,53.71
2022-10-06T10:47:13.880Z,53.25
2022-10-06T10:49:47.341Z,53.49
2022-10-06T10:52:20.750Z,52.78
2022-10-06T10:54:57.063Z,51.68
2022-10-06T10:57:30.686Z,52.32
2022-10-06T11:00:22.842Z,52.74
2022-10-06T11:02:56.627Z,52.28
2022-10-06T11:05:52.899Z,52.44
2022-10-06T11:08:38.090Z,52.92
2022-10-06T11:11:14.472Z,53.61
2022-10-06T11:13:50.579Z,53.07
2022-10-06T11:16:44.658Z,51.59
2022-10-06T11:19:18.376Z,51.69
2022-10-06T11:22:00.743Z,51.87
2022-10-06T11:24:53.637Z,51.06
2022-10-06T11:27:45.382Z,50.19
2022-10-06T11:30:25.338Z,45.79
2022-10-06T11:33:14.246Z,44.63
2022-10-06T11:35:46.662Z,44.19
2022-10-06T11:38:29.200Z,44.04
2022-10-06T11:41:14.049Z,41.31
2022-10-06T11:44:04.183Z,39.08
2022-10-06T11:46:41.310Z,40.09
2022-10-06T11:49:32.682Z,39.71
2022-10-06T11:52:14.714Z,38.18
2022-10-06T11:54:48.563Z,37.65
2022-10-06T11:57:31.210Z,36.35
2022-10-06T12:00:18.603Z,36.34
2022-10-06T12:02:49.124Z,36.98
2022-10-06T12:05:54.665Z,41.21
2022-10-06T12:07:58.020Z,44.44
2022-10-06T12:10:34.030Z,44.99
2022-10-06T12:13:51.373Z,45.00
2022-10-06T12:18:51.667Z,46.42
2022-10-06T12:21:50.225Z,46.61
2022-10-06T12:24:32.456Z,47.15
2022-10-06T12:27:25.979Z,48.38
2022-10-06T12:30:08.893Z,49.06
2022-10-06T12:33:00.189Z,48.11
2022-10-06T12:35:39.906Z,49.92
2022-10-06T12:38:34.743Z,49.94
2022-10-06T12:41:06.652Z,50.04
2022-10-06T12:43:55.200Z,49.10
2022-10-06T12:46:28.780Z,49.20
2022-10-06T12:49:05.390Z,48.36
2022-10-06T12:51:44.507Z,46.70
2022-10-06T12:54:36.454Z,46.72
2022-10-06T12:57:15.853Z,47.41
2022-10-06T12:59:46.931Z,48.14
2022-10-06T13:02:25.916Z,49.21
2022-10-06T13:05:06.181Z,50.08
2022-10-06T13:07:39.654Z,50.10
2022-10-06T13:10:21.989Z,49.89
2022-10-06T13:12:52.673Z,49.22
2022-10-06T13:15:35.052Z,49.64
2022-10-06T13:18:15.975Z,50.37
2022-10-06T13:20:55.250Z,49.76
2022-10-06T13:23:34.315Z,50.43
2022-10-06T13:26:10.115Z,49.72
2022-10-06T13:28:46.573Z,49.94
2022-10-06T13:31:27.283Z,50.26
2022-10-06T13:34:12.667Z,50.23
2022-10-06T13:36:46.686Z,50.52
2022-10-06T13:39:19.429Z,50.06
2022-10-06T13:42:07.233Z,50.32
2022-10-06T13:44:49.409Z,49.24
2022-10-06T13:47:22.414Z,49.12
2022-10-06T13:50:05.851Z,49.44
2022-10-06T13:52:39.922Z,48.95
2022-10-06T13:55:27.453Z,48.96
2022-10-06T13:58:06.743Z,49.29
2022-10-06T14:00:56.859Z,49.27
2022-10-06T14:06:16.907Z,49.77
2022-10-06T14:08:50.761Z,49.94
2022-10-06T14:11:29.634Z,50.59
2022-10-06T14:14:03.201Z,50.67
2022-10-06T14:16:34.126Z,50.47
2022-10-06T14:19:07.015Z,50.34
2022-10-06T14:21:45.762Z,50.16
2022-10-06T14:24:26.050Z,49.79
2022-10-06T14:27:01.954Z,50.00
2022-10-06T14:29:34.061Z,50.14
2022-10-06T14:32:09.526Z,50.51
2022-10-06T14:34:42.026Z,50.66
2022-10-06T14:37:14.783Z,50.68
2022-10-06T14:39:46.612Z,51.18
2022-10-06T14:42:17.423Z,51.53
2022-10-06T14:44:48.130Z,51.28
2022-10-06T14:47:18.528Z,50.44
2022-10-06T14:49:49.056Z,50.70
2022-10-06T14:52:19.586Z,50.59
2022-10-06T14:54:50.787Z,50.63
2022-10-06T14:57:21.759Z,50.69
2022-10-06T14:59:52.065Z,50.65
2022-10-06T15:02:22.787Z,50.92
2022-10-06T15:04:53.148Z,51.22
2022-10-06T15:07:41.592Z,51.57
2022-10-06T15:10:11.972Z,51.98
2022-10-06T15:12:42.363Z,51.35
2022-10-06T15:15:12.671Z,51.27
2022-10-06T15:17:42.996Z,51.46
2022-10-06T15:20:14.539Z,51.06
2022-10-06T15:22:45.413Z,51.22
2022-10-06T15:25:33.732Z,51.43
2022-10-06T15:28:23.634Z,52.05
2022-10-06T15:30:54.445Z,51.61
2022-10-06T15:33:25.082Z,51.77
2022-10-06T15:36:19.101Z,52.07
2022-10-06T15:38:49.536Z,52.23
2022-10-06T15:41:20.675Z,52.48
2022-10-06T15:44:00.419Z,52.74
2022-10-06T15:46:37.013Z,52.79
2022-10-06T15:49:12.264Z,53.27
2022-10-06T15:51:48.714Z,53.91
2022-10-06T15:54:21.687Z,53.75
2022-10-06T15:56:59.930Z,54.16
2022-10-06T15:59:32.653Z,54.11
2022-10-06T16:02:06.876Z,53.82
2022-10-06T16:04:43.214Z,54.61
2022-10-06T16:07:18.576Z,54.02
2022-10-06T16:09:51.600Z,54.64
2022-10-06T16:12:25.026Z,55.50
2022-10-06T16:14:55.773Z,55.23
2022-10-06T16:17:26.073Z,55.20
2022-10-06T16:19:56.656Z,55.59
2022-10-06T16:22:27.137Z,55.73
2022-10-06T16:24:57.535Z,55.90
2022-10-06T16:27:31.313Z,56.32
2022-10-06T16:29:59.929Z,56.19
2022-10-06T16:32:30.295Z,55.93
2022-10-06T16:35:00.695Z,56.21
2022-10-06T16:37:31.096Z,56.56
2022-10-06T16:40:01.509Z,56.20
2022-10-06T16:42:31.904Z,56.55
2022-10-06T16:45:02.284Z,56.87
2022-10-06T16:47:32.598Z,56.57
2022-10-06T16:50:02.953Z,56.75
2022-10-06T16:52:33.281Z,57.01
2022-10-06T16:55:03.709Z,56.83
2022-10-06T16:57:34.067Z,57.27
2022-10-06T17:00:05.834Z,57.30
2022-10-06T17:02:36.793Z,57.53
2022-10-06T17:05:07.767Z,57.87
2022-10-06T17:07:38.165Z,57.51
2022-10-06T17:13:02.802Z,57.86
2022-10-06T17:15:33.747Z,58.47
2022-10-06T17:18:04.365Z,58.26
2022-10-06T17:20:34.750Z,58.23
2022-10-06T17:23:04.989Z,58.66
2022-10-06T17:25:35.778Z,59.62
2022-10-06T17:28:07.277Z,58.63
2022-10-06T17:30:37.739Z,58.91
2022-10-06T17:33:08.405Z,58.66
2022-10-06T17:35:40.332Z,59.02
2022-10-06T17:38:10.754Z,59.77
2022-10-06T17:40:46.876Z,60.53
2022-10-06T17:43:17.291Z,60.81
2022-10-06T17:45:49.524Z,61.43
2022-10-06T17:48:19.869Z,60.09
2022-10-06T17:50:59.752Z,60.27
2022-10-06T17:53:30.215Z,59.89
2022-10-06T17:56:08.518Z,60.44
2022-10-06T17:58:41.823Z,61.39
2022-10-06T18:01:20.110Z,61.16
2022-10-06T18:03:52.763Z,61.55
2022-10-06T18:06:26.848Z,61.66
2022-10-06T18:09:00.147Z,61.60
2022-10-06T18:11:38.686Z,61.20
2022-10-06T18:14:14.279Z,61.37
2022-10-06T18:17:00.658Z,61.32
2022-10-06T18:19:35.750Z,61.79
2022-10-06T18:22:09.833Z,61.42
2022-10-06T18:24:40.775Z,61.79
2022-10-06T18:27:12.790Z,61.70
2022-10-06T18:29:43.198Z,63.72
2022-10-06T18:37:20.456Z,62.78
2022-10-06T18:39:50.803Z,63.63
2022-10-06T18:42:21.685Z,64.38
2022-10-06T18:45:10.271Z,64.58
2022-10-06T18:47:58.538Z,64.80
2022-10-06T18:50:28.930Z,65.19
2022-10-06T18:52:59.318Z,65.52
2022-10-06T18:55:33.166Z,64.29
2022-10-06T18:58:06.360Z,65.66
2022-10-06T19:00:36.779Z,64.68
2022-10-06T19:03:07.171Z,66.01
2022-10-06T19:05:37.613Z,66.56
2022-10-06T19:08:09.257Z,65.63
2022-10-06T19:10:41.217Z,66.72
2022-10-06T19:13:11.564Z,67.21
2022-10-06T19:15:45.246Z,66.87
2022-10-06T19:18:15.620Z,67.43
2022-10-06T19:20:53.423Z,67.22
2022-10-06T19:23:23.720Z,66.41
2022-10-06T19:26:01.189Z,67.66
2022-10-06T19:28:33.520Z,67.96
2022-10-06T19:31:07.172Z,68.13
2022-10-06T19:33:39.778Z,67.31
2022-10-06T19:36:13.955Z,68.14
2022-10-06T19:38:46.177Z,68.61
2022-10-06T19:41:34.871Z,68.07
2022-10-06T19:44:05.245Z,68.64
2022-10-06T19:46:37.530Z,68.64
2022-10-06T19:49:08.161Z,68.36
2022-10-06T19:51:41.237Z,69.69
2022-10-06T19:54:13.676Z,69.07
2022-10-06T19:56:45.875Z,69.55
2022-10-06T19:59:18.501Z,69.95
2022-10-06T20:01:50.149Z,69.63
2022-10-06T20:04:23.001Z,69.02
2022-10-06T20:06:54.238Z,68.87
2022-10-06T20:09:24.940Z,68.68
2022-10-06T20:11:55.700Z,68.13
2022-10-06T20:14:26.690Z,67.63
2022-10-06T20:16:58.118Z,68.96
2022-10-06T20:19:28.469Z,69.32
2022-10-06T20:21:58.867Z,68.19
2022-10-06T20:24:30.967Z,68.84
2022-10-06T20:27:01.361Z,69.20
2022-10-06T20:29:32.326Z,69.87
2022-10-06T20:32:04.593Z,69.82
2022-10-06T20:34:35.267Z,70.37
2022-10-06T20:37:06.558Z,70.07
2022-10-06T20:39:54.903Z,69.83
2022-10-06T20:42:27.906Z,70.09
2022-10-06T20:44:58.298Z,70.06
2022-10-06T20:47:29.166Z,70.28
2022-10-06T20:49:59.474Z,70.49
2022-10-06T20:52:30.153Z,70.94
2022-10-06T20:55:00.539Z,71.38
2022-10-06T20:57:33.835Z,71.20
2022-10-06T21:00:03.116Z,71.27
2022-10-06T21:02:34.119Z,71.78
2022-10-06T21:05:04.606Z,71.76
2022-10-06T21:07:35.120Z,71.96
2022-10-06T21:10:06.112Z,71.76
2022-10-06T21:12:36.725Z,72.09
2022-10-06T21:15:07.778Z,72.14
2022-10-06T21:17:39.490Z,71.90
2022-10-06T21:20:10.372Z,71.73
2022-10-06T21:22:40.889Z,72.11
2022-10-06T21:25:11.259Z,72.31
2022-10-06T21:27:41.976Z,72.48
2022-10-06T21:30:13.542Z,72.57
2022-10-06T21:32:44.077Z,72.86
2022-10-06T21:35:14.472Z,72.94
2022-10-06T21:37:45.811Z,73.04
2022-10-06T21:40:16.649Z,73.43
2022-10-06T21:42:47.155Z,73.25
2022-10-06T21:45:17.659Z,73.18
2022-10-06T21:47:48.063Z,73.07
2022-10-06T21:50:18.673Z,73.01
2022-10-06T21:52:49.076Z,73.08
2022-10-06T21:55:19.505Z,73.12
2022-10-06T21:57:50.009Z,72.96
2022-10-06T22:00:20.427Z,73.37
2022-10-06T22:02:50.804Z,73.05
2022-10-06T22:05:22.736Z,73.31
2022-10-06T22:07:53.244Z,73.54
2022-10-06T22:10:25.442Z,73.67
2022-10-06T22:12:55.852Z,73.87
2022-10-06T22:15:26.372Z,73.77
2022-10-06T22:17:56.710Z,73.94
2022-10-06T22:20:27.139Z,74.30
2022-10-06T22:23:00.322Z,74.53
2022-10-06T22:25:30.472Z,74.49
2022-10-06T22:28:00.849Z,74.57
2022-10-06T22:30:31.207Z,74.37
2022-10-06T22:33:01.558Z,74.67
2022-10-06T22:35:31.978Z,75.36
2022-10-06T22:38:02.424Z,75.71
2022-10-06T22:40:32.896Z,75.36
2022-10-06T22:43:03.232Z,75.41
2022-10-06T22:45:38.726Z,75.49
2022-10-06T22:48:08.916Z,75.84
2022-10-06T22:50:39.239Z,75.71
2022-10-06T22:53:09.656Z,75.60
2022-10-06T22:55:40.060Z,75.80
2022-10-06T22:58:10.850Z,75.76
2022-10-06T23:00:41.877Z,75.59
2022-10-06T23:03:13.011Z,75.69
2022-10-06T23:05:43.398Z,75.86
2022-10-06T23:08:13.800Z,76.67
2022-10-06T23:10:44.203Z,76.16
2022-10-06T23:13:14.676Z,76.57
2022-10-06T23:15:45.076Z,76.43
2022-10-06T23:18:16.168Z,76.23
2022-10-06T23:20:46.601Z,76.60
2022-10-06T23:23:16.998Z,76.72
2022-10-06T23:25:47.410Z,76.61
2022-10-06T23:28:17.920Z,76.28
2022-10-06T23:30:48.358Z,76.41
2022-10-06T23:33:18.786Z,76.59
2022-10-06T23:35:58.036Z,76.43
2022-10-06T23:38:28.849Z,76.35
2022-10-06T23:40:59.511Z,76.62
2022-10-06T23:43:30.079Z,76.70
2022-10-06T23:46:00.798Z,76.58
2022-10-06T23:48:31.253Z,76.50
2022-10-06T23:51:04.174Z,77.17
2022-10-06T23:53:35.844Z,77.04
2022-10-06T23:56:07.245Z,77.41
2022-10-06T23:58:38.163Z,77.48
